createdAt,value
2019-03-06T00:01:14.838Z,6.20
2019-03-06T00:03:44.009Z,6.97
2019-03-06T00:06:16.640Z,6.70
2019-03-06T00:08:44.578Z,6.63
2019-03-06T00:11:13.779Z,6.17
2019-03-06T00:13:42.927Z,7.97
2019-03-06T00:16:12.089Z,7.13
2019-03-06T00:18:41.211Z,8.23
2019-03-06T00:21:10.397Z,7.03
2019-03-06T00:23:39.518Z,6.70
2019-03-06T00:26:08.912Z,5.83
2019-03-06T00:28:38.023Z,6.43
2019-03-06T00:31:07.210Z,19.93
2019-03-06T00:33:36.382Z,26.20
2019-03-06T00:36:10.061Z,45.70
2019-03-06T00:38:39.251Z,70.83
2019-03-06T00:41:25.966Z,75.93
2019-03-06T00:43:55.072Z,49.43
2019-03-06T00:46:24.251Z,35.73
2019-03-06T00:48:53.437Z,33.43
2019-03-06T00:51:22.517Z,57.20
2019-03-06T00:53:51.664Z,27.23
2019-03-06T00:56:20.799Z,19.10
2019-03-06T00:58:50.110Z,24.20
2019-03-06T01:01:19.321Z,27.80
2019-03-06T01:03:48.448Z,24.57
2019-03-06T01:06:17.676Z,32.00
2019-03-06T01:08:46.984Z,37.23
2019-03-06T01:11:16.174Z,30.10
2019-03-06T01:13:45.305Z,56.60
2019-03-06T01:16:14.497Z,43.23
2019-03-06T01:18:43.674Z,53.40
2019-03-06T01:21:13.132Z,50.97
2019-03-06T01:23:42.286Z,43.27
2019-03-06T01:26:11.503Z,43.10
2019-03-06T01:28:40.661Z,45.53
2019-03-06T01:31:09.875Z,37.27
2019-03-06T01:34:04.230Z,36.77
2019-03-06T01:36:43.919Z,31.83
2019-03-06T01:39:41.666Z,25.03
2019-03-06T01:42:18.694Z,19.43
2019-03-06T01:44:54.181Z,32.43
2019-03-06T01:47:23.136Z,31.73
2019-03-06T01:49:52.344Z,33.37
2019-03-06T01:52:21.468Z,36.73
2019-03-06T01:54:50.638Z,30.03
2019-03-06T01:57:19.742Z,26.03
2019-03-06T01:59:48.936Z,19.47
2019-03-06T02:02:18.720Z,26.83
2019-03-06T02:04:47.895Z,22.33
2019-03-06T04:24:24.614Z,27.80
2019-03-06T04:26:53.763Z,24.97
2019-03-06T04:29:23.052Z,26.43
2019-03-06T04:31:52.211Z,24.87
2019-03-06T04:34:21.417Z,23.27
2019-03-06T04:36:50.563Z,25.03
2019-03-06T04:39:19.735Z,24.93
2019-03-06T04:41:48.872Z,26.50
2019-03-06T04:44:18.117Z,40.33
2019-03-06T04:46:47.259Z,61.83
2019-03-06T04:49:16.454Z,37.93
2019-03-06T04:51:45.620Z,36.43
2019-03-06T04:54:14.779Z,39.43
2019-03-06T04:56:44.047Z,34.73
2019-03-06T04:59:13.169Z,31.83
2019-03-06T05:01:42.600Z,32.73
2019-03-06T05:04:11.836Z,27.57
2019-03-06T05:06:40.972Z,26.17
2019-03-06T05:09:10.147Z,27.53
2019-03-06T05:11:39.324Z,27.80
2019-03-06T05:14:08.484Z,25.83
2019-03-06T05:16:49.810Z,26.03
2019-03-06T05:19:19.013Z,28.53
2019-03-06T05:21:48.192Z,24.43
2019-03-06T05:24:17.383Z,25.93
2019-03-06T05:26:46.510Z,25.63
2019-03-06T05:29:24.700Z,26.00
2019-03-06T05:32:43.505Z,23.27
2019-03-06T05:35:22.590Z,24.00
2019-03-06T05:38:19.485Z,24.70
2019-03-06T05:40:48.633Z,27.10
2019-03-06T05:43:17.877Z,29.23
2019-03-06T05:45:47.351Z,29.90
2019-03-06T05:48:16.482Z,27.80
2019-03-06T05:50:45.928Z,30.00
2019-03-06T05:53:15.050Z,34.73
2019-03-06T05:55:44.197Z,33.80
2019-03-06T05:58:13.405Z,34.83
2019-03-06T06:00:42.578Z,36.20
2019-03-06T06:03:11.714Z,33.00
2019-03-06T06:05:42.791Z,35.93
2019-03-06T06:08:12.022Z,34.07
2019-03-06T06:10:41.571Z,41.43
2019-03-06T06:13:10.722Z,38.00
2019-03-06T06:15:39.915Z,40.20
2019-03-06T06:18:09.150Z,31.60
2019-03-06T06:20:38.769Z,34.40
2019-03-06T06:23:30.153Z,34.30
2019-03-06T06:25:59.300Z,30.33
2019-03-06T06:28:28.603Z,27.33
2019-03-06T06:30:57.966Z,29.97
2019-03-06T06:33:27.300Z,30.13
2019-03-06T06:35:56.531Z,29.20
2019-03-06T06:38:25.756Z,28.83
2019-03-06T06:40:54.899Z,30.13
2019-03-06T06:43:24.158Z,26.20
2019-03-06T06:45:53.420Z,27.47
2019-03-06T06:48:23.832Z,26.43
2019-03-06T06:51:26.327Z,29.63
2019-03-06T06:54:12.682Z,27.37
2019-03-06T06:57:21.860Z,23.17
2019-03-06T07:00:23.572Z,21.63
2019-03-06T07:03:45.876Z,25.50
2019-03-06T07:06:40.182Z,25.57
2019-03-06T07:09:28.819Z,23.90
2019-03-06T07:12:19.858Z,22.27
2019-03-06T07:14:59.655Z,19.63
2019-03-06T07:17:38.942Z,23.70
2019-03-06T07:20:43.300Z,20.60
2019-03-06T07:23:19.359Z,18.90
2019-03-06T07:26:10.562Z,20.20
2019-03-06T07:29:05.049Z,24.30
2019-03-06T07:31:56.157Z,21.70
2019-03-06T07:34:36.647Z,18.33
2019-03-06T07:37:12.331Z,19.47
2019-03-06T07:40:09.495Z,20.30
2019-03-06T07:42:55.537Z,19.63
2019-03-06T07:46:05.826Z,17.77
2019-03-06T07:49:05.663Z,20.43
2019-03-06T07:51:40.862Z,23.27
2019-03-06T07:54:23.205Z,22.03
2019-03-06T07:57:11.422Z,20.90
2019-03-06T07:59:40.822Z,20.07
2019-03-06T08:02:12.651Z,20.03
2019-03-06T08:04:50.511Z,22.03
2019-03-06T08:07:19.720Z,20.87
2019-03-06T08:09:49.234Z,22.27
2019-03-06T08:12:29.087Z,22.07
2019-03-06T08:15:23.498Z,20.00
2019-03-06T08:18:10.799Z,21.63
2019-03-06T08:20:58.114Z,18.87
2019-03-06T08:23:39.553Z,18.43
2019-03-06T08:26:08.956Z,20.07
2019-03-06T08:28:38.203Z,22.30
2019-03-06T08:31:17.093Z,17.40
2019-03-06T08:33:46.247Z,18.77
2019-03-06T08:36:15.415Z,19.73
2019-03-06T08:38:44.607Z,20.50
2019-03-06T08:41:13.778Z,19.37
2019-03-06T08:43:43.488Z,17.43
2019-03-06T08:46:34.602Z,18.50
2019-03-06T08:49:42.126Z,19.10
2019-03-06T08:52:28.849Z,18.30
2019-03-06T08:55:23.096Z,18.57
2019-03-06T08:58:13.033Z,17.80
2019-03-06T09:00:56.523Z,19.97
2019-03-06T09:03:58.017Z,16.83
2019-03-06T09:06:39.089Z,18.20
2019-03-06T09:09:27.794Z,17.87
2019-03-06T09:12:21.737Z,19.03
2019-03-06T09:15:15.857Z,15.97
2019-03-06T09:18:09.110Z,16.43
2019-03-06T09:20:43.367Z,18.23
2019-03-06T09:23:34.750Z,17.23
2019-03-06T09:26:19.551Z,17.17
2019-03-06T09:29:01.448Z,15.10
2019-03-06T09:31:39.629Z,14.93
2019-03-06T09:34:21.647Z,17.13
2019-03-06T09:37:09.313Z,15.83
2019-03-06T09:39:48.832Z,14.47
2019-03-06T09:42:35.974Z,14.43
2019-03-06T09:45:11.237Z,15.33
2019-03-06T09:47:47.446Z,14.47
2019-03-06T09:50:24.369Z,13.67
2019-03-06T09:53:12.591Z,14.03
2019-03-06T09:55:59.918Z,14.90
2019-03-06T09:58:45.030Z,13.57
2019-03-06T10:01:32.125Z,17.10
2019-03-06T10:04:32.432Z,12.37
2019-03-06T10:07:31.065Z,15.23
2019-03-06T10:10:19.240Z,11.73
2019-03-06T10:13:07.406Z,11.77
2019-03-06T10:15:43.639Z,17.60
2019-03-06T10:18:18.054Z,12.83
2019-03-06T10:20:47.224Z,15.47
2019-03-06T10:23:16.415Z,14.37
2019-03-06T10:25:45.767Z,12.27
2019-03-06T10:28:14.978Z,12.50
2019-03-06T10:30:44.197Z,12.43
2019-03-06T10:33:13.327Z,12.30
2019-03-06T10:35:42.518Z,10.67
2019-03-06T10:38:16.574Z,11.87
2019-03-06T10:40:43.826Z,10.70
2019-03-06T10:43:13.964Z,11.70
2019-03-06T10:45:44.307Z,11.10
2019-03-06T10:48:13.702Z,11.27
2019-03-06T10:50:42.841Z,10.17
2019-03-06T10:53:13.978Z,11.97
2019-03-06T10:55:45.076Z,9.60
2019-03-06T10:58:14.207Z,9.63
2019-03-06T11:01:01.764Z,11.07
2019-03-06T11:03:38.922Z,9.20
2019-03-06T11:06:08.759Z,9.73
2019-03-06T11:08:38.171Z,9.57
2019-03-06T11:11:08.035Z,10.47
2019-03-06T11:13:37.688Z,12.97
2019-03-06T11:16:09.005Z,9.20
2019-03-06T11:18:38.169Z,7.70
2019-03-06T11:21:07.935Z,7.77
2019-03-06T11:23:37.141Z,9.23
2019-03-06T11:26:08.633Z,11.40
2019-03-06T11:28:38.851Z,8.80
2019-03-06T11:31:09.319Z,7.07
2019-03-06T11:33:39.048Z,10.57
2019-03-06T11:36:08.414Z,11.07
2019-03-06T11:38:37.533Z,10.37
2019-03-06T11:41:07.298Z,9.70
2019-03-06T11:43:36.432Z,7.60
2019-03-06T11:46:07.814Z,9.63
2019-03-06T11:48:36.972Z,8.97
2019-03-06T11:51:06.534Z,10.13
2019-03-06T11:53:37.487Z,8.37
2019-03-06T11:56:07.185Z,8.33
2019-03-06T11:58:36.298Z,8.87
2019-03-06T12:01:10.233Z,8.77
2019-03-06T12:03:39.655Z,9.40
2019-03-06T12:06:08.908Z,7.00
2019-03-06T12:08:45.573Z,8.17
2019-03-06T12:11:09.256Z,9.27
2019-03-06T12:13:39.412Z,8.83
2019-03-06T12:16:08.903Z,6.50
2019-03-06T12:18:38.135Z,6.97
2019-03-06T12:21:07.402Z,8.07
2019-03-06T12:23:36.596Z,7.70
2019-03-06T12:26:06.199Z,8.17
2019-03-06T12:28:36.012Z,7.73
2019-03-06T12:31:08.368Z,6.50
2019-03-06T12:33:37.570Z,9.50
2019-03-06T12:36:06.842Z,6.57
2019-03-06T12:38:36.118Z,7.57
2019-03-06T12:41:05.724Z,7.40
2019-03-06T12:43:35.571Z,9.00
2019-03-06T12:46:22.671Z,7.17
2019-03-06T12:48:48.351Z,6.73
2019-03-06T12:51:17.606Z,7.23
2019-03-06T12:53:47.033Z,10.43
2019-03-06T12:56:18.039Z,6.27
2019-03-06T12:58:47.188Z,7.13
2019-03-06T13:01:16.461Z,7.80
2019-03-06T13:03:47.361Z,7.20
2019-03-06T13:06:24.161Z,6.60
2019-03-06T13:08:50.654Z,10.67
2019-03-06T13:11:18.672Z,6.07
2019-03-06T13:13:47.880Z,7.67
2019-03-06T13:16:17.086Z,6.83
2019-03-06T13:18:46.239Z,8.33
2019-03-06T13:21:15.675Z,6.13
2019-03-06T13:23:44.844Z,6.03
2019-03-06T13:26:13.990Z,8.27
2019-03-06T13:28:43.156Z,9.33
2019-03-06T13:31:12.304Z,7.93
2019-03-06T13:33:57.277Z,10.20
2019-03-06T13:36:26.386Z,6.87
2019-03-06T13:39:05.754Z,6.43
2019-03-06T13:41:26.702Z,8.43
2019-03-06T13:43:55.900Z,6.50
2019-03-06T13:46:25.355Z,10.83
2019-03-06T13:48:54.820Z,6.47
2019-03-06T13:51:24.051Z,9.57
2019-03-06T13:53:53.375Z,6.53
2019-03-06T13:56:22.774Z,6.97
2019-03-06T13:58:52.021Z,7.50
2019-03-06T14:01:21.396Z,6.20
2019-03-06T14:03:50.541Z,7.03
2019-03-06T14:06:19.657Z,9.43
2019-03-06T14:08:48.834Z,11.67
2019-03-06T14:11:17.994Z,9.97
2019-03-06T14:13:47.189Z,11.10
2019-03-06T14:16:16.477Z,8.07
2019-03-06T14:18:45.687Z,9.23
2019-03-06T14:21:14.899Z,7.93
2019-03-06T14:23:44.173Z,6.60
2019-03-06T14:26:13.486Z,7.63
2019-03-06T14:28:42.635Z,7.27
2019-03-06T14:31:12.994Z,6.37
2019-03-06T14:33:42.110Z,6.80
2019-03-06T14:36:11.252Z,6.57
2019-03-06T14:38:40.416Z,7.43
2019-03-06T14:41:09.610Z,7.47
2019-03-06T14:43:38.993Z,7.63
2019-03-06T14:46:16.265Z,8.13
2019-03-06T14:48:39.891Z,10.67
2019-03-06T14:51:09.059Z,7.50
2019-03-06T14:53:38.199Z,7.27
2019-03-06T14:56:07.355Z,9.23
2019-03-06T14:58:36.638Z,8.07
2019-03-06T15:01:06.937Z,8.23
2019-03-06T15:03:36.143Z,9.73
2019-03-06T15:06:05.564Z,7.30
2019-03-06T15:08:34.933Z,7.67
2019-03-06T15:11:04.420Z,8.93
2019-03-06T15:13:37.069Z,7.90
2019-03-06T15:16:06.252Z,8.83
2019-03-06T15:18:35.422Z,14.63
2019-03-06T15:21:04.605Z,11.40
2019-03-06T15:23:36.507Z,8.40
2019-03-06T15:26:05.006Z,8.53
2019-03-06T15:28:34.135Z,7.63
2019-03-06T15:31:03.421Z,10.20
2019-03-06T15:33:32.571Z,8.83
2019-03-06T15:36:01.723Z,9.10
2019-03-06T15:38:30.906Z,8.17
2019-03-06T15:41:03.123Z,8.13
2019-03-06T15:43:32.351Z,7.77
2019-03-06T15:46:01.538Z,8.43
2019-03-06T15:48:30.691Z,8.60
2019-03-06T15:51:00.082Z,10.70
2019-03-06T15:53:29.284Z,10.10
2019-03-06T15:55:58.637Z,11.73
2019-03-06T15:58:28.137Z,9.07
2019-03-06T16:00:57.297Z,9.17
2019-03-06T16:03:26.464Z,9.67
2019-03-06T16:05:55.610Z,13.13
2019-03-06T16:08:24.912Z,9.27
2019-03-06T16:10:54.026Z,9.50
2019-03-06T16:13:23.278Z,8.07
2019-03-06T16:15:52.498Z,7.87
2019-03-06T16:18:21.662Z,9.33
2019-03-06T16:20:50.841Z,11.23
2019-03-06T16:23:22.363Z,8.70
2019-03-06T16:25:51.553Z,7.37
2019-03-06T16:28:20.720Z,8.90
2019-03-06T16:30:49.893Z,9.93
2019-03-06T16:33:21.212Z,7.43
2019-03-06T16:35:50.232Z,10.70
2019-03-06T16:38:19.399Z,8.47
2019-03-06T16:40:48.725Z,7.77
2019-03-06T16:43:18.298Z,8.30
2019-03-06T16:45:47.471Z,7.93
2019-03-06T16:48:16.698Z,9.53
2019-03-06T16:50:45.975Z,9.40
2019-03-06T16:53:15.651Z,7.30
2019-03-06T16:55:44.799Z,6.73
2019-03-06T16:58:14.091Z,6.53
2019-03-06T17:00:43.318Z,6.03
2019-03-06T17:03:12.434Z,7.57
2019-03-06T17:05:41.942Z,5.47
2019-03-06T17:08:11.213Z,7.33
2019-03-06T17:10:40.425Z,7.47
2019-03-06T17:13:10.092Z,6.23
2019-03-06T17:15:39.219Z,5.90
2019-03-06T17:18:15.174Z,7.87
2019-03-06T17:20:44.338Z,10.57
2019-03-06T17:23:13.490Z,12.70
2019-03-06T17:25:43.302Z,11.40
2019-03-06T17:28:13.015Z,11.10
2019-03-06T17:30:42.360Z,5.93
2019-03-06T17:33:11.942Z,8.70
2019-03-06T17:35:41.611Z,6.70
2019-03-06T17:38:11.580Z,7.37
2019-03-06T17:40:41.016Z,5.60
2019-03-06T17:43:10.367Z,8.07
2019-03-06T17:45:39.554Z,5.83
2019-03-06T17:48:08.993Z,5.70
2019-03-06T17:50:38.204Z,5.17
2019-03-06T17:53:07.685Z,16.23
2019-03-06T17:55:37.170Z,6.33
2019-03-06T17:58:06.558Z,7.00
2019-03-06T18:00:40.773Z,7.23
2019-03-06T18:03:11.274Z,4.83
2019-03-06T18:05:40.459Z,6.90
2019-03-06T18:08:11.506Z,7.20
2019-03-06T18:10:40.794Z,6.50
2019-03-06T18:13:10.406Z,5.40
2019-03-06T18:15:39.702Z,5.90
2019-03-06T18:18:08.826Z,5.80
2019-03-06T18:20:37.991Z,7.70
2019-03-06T18:23:07.088Z,7.00
2019-03-06T18:25:36.358Z,7.47
2019-03-06T18:28:05.841Z,5.70
2019-03-06T18:30:35.111Z,4.93
2019-03-06T18:33:04.474Z,5.70
2019-03-06T18:35:33.737Z,5.30
2019-03-06T18:38:03.301Z,6.90
2019-03-06T18:40:32.735Z,5.33
2019-03-06T18:43:02.214Z,5.97
2019-03-06T18:45:31.464Z,6.27
2019-03-06T18:48:00.606Z,6.23
2019-03-06T18:50:29.774Z,5.87
2019-03-06T18:52:59.255Z,6.80
2019-03-06T18:55:28.554Z,5.10
2019-03-06T18:57:58.157Z,8.77
2019-03-06T19:00:29.833Z,5.03
2019-03-06T19:02:59.404Z,6.43
2019-03-06T19:05:29.120Z,7.00
2019-03-06T19:08:05.124Z,8.80
2019-03-06T19:10:34.496Z,10.43
2019-03-06T19:13:08.156Z,7.33
2019-03-06T19:15:37.645Z,5.53
2019-03-06T19:18:07.066Z,5.57
2019-03-06T19:20:36.624Z,5.83
2019-03-06T19:23:05.946Z,7.27
2019-03-06T19:25:36.258Z,6.60
2019-03-06T19:28:07.371Z,12.33
2019-03-06T19:30:40.643Z,4.77
2019-03-06T19:33:11.221Z,4.07
2019-03-06T19:35:42.377Z,4.87
2019-03-06T19:38:16.543Z,3.43
2019-03-06T19:40:48.343Z,2.93
2019-03-06T19:43:19.035Z,3.27
2019-03-06T19:45:50.288Z,2.60
2019-03-06T19:48:21.498Z,3.23
2019-03-06T19:50:52.778Z,4.43
2019-03-06T19:53:23.183Z,4.40
2019-03-06T19:55:54.518Z,4.07
2019-03-06T19:58:25.311Z,3.20
2019-03-06T20:00:55.869Z,5.47
2019-03-06T20:03:27.778Z,4.43
2019-03-06T20:05:58.117Z,3.73
2019-03-06T20:08:29.643Z,3.10
2019-03-06T20:10:59.782Z,5.10
2019-03-06T20:13:30.195Z,3.03
2019-03-06T20:15:59.868Z,2.37
2019-03-06T20:18:29.510Z,2.27
2019-03-06T20:20:59.761Z,2.80
2019-03-06T20:23:29.089Z,2.50
2019-03-06T20:25:58.434Z,2.83
2019-03-06T20:28:27.762Z,2.70
2019-03-06T20:30:57.259Z,9.90
2019-03-06T20:33:26.462Z,4.83
2019-03-06T20:35:56.844Z,5.40
2019-03-06T20:38:27.875Z,3.03
2019-03-06T20:40:59.440Z,4.40
2019-03-06T20:43:29.404Z,3.20
2019-03-06T20:46:01.899Z,4.93
2019-03-06T20:48:32.827Z,4.67
2019-03-06T20:51:03.877Z,2.80
2019-03-06T20:53:34.168Z,2.90
2019-03-06T20:56:07.801Z,2.10
2019-03-06T20:58:37.905Z,4.27
2019-03-06T21:01:08.436Z,3.10
2019-03-06T21:03:39.356Z,3.63
2019-03-06T21:06:10.323Z,3.30
2019-03-06T21:08:43.549Z,3.27
2019-03-06T21:11:16.096Z,2.43
2019-03-06T21:13:45.312Z,2.63
2019-03-06T21:16:14.859Z,3.17
2019-03-06T21:18:44.993Z,3.90
2019-03-06T21:21:20.047Z,3.17
2019-03-06T21:23:49.337Z,2.03
2019-03-06T21:26:18.497Z,2.13
2019-03-06T21:28:48.364Z,3.50
2019-03-06T21:31:38.324Z,3.43
2019-03-06T21:34:09.393Z,4.43
2019-03-06T21:36:38.670Z,3.97
2019-03-06T21:39:24.883Z,4.37
2019-03-06T21:41:54.035Z,4.47
2019-03-06T21:44:23.275Z,2.50
2019-03-06T21:46:52.474Z,1.93
2019-03-06T21:49:21.685Z,2.50
2019-03-06T21:51:50.887Z,5.97
2019-03-06T21:54:20.417Z,3.17
2019-03-06T21:56:49.701Z,3.40
2019-03-06T21:59:18.897Z,3.07
2019-03-06T22:01:48.085Z,3.83
2019-03-06T22:04:17.297Z,2.63
2019-03-06T22:06:46.488Z,2.90
2019-03-06T22:09:16.083Z,4.87
2019-03-06T22:11:45.297Z,4.47
2019-03-06T22:14:14.803Z,4.57
2019-03-06T22:16:44.175Z,4.43
2019-03-06T22:19:13.440Z,6.63
2019-03-06T22:21:42.917Z,4.63
2019-03-06T22:24:12.866Z,3.03
2019-03-06T22:26:42.942Z,2.53
2019-03-06T22:29:13.252Z,4.47
2019-03-06T22:31:46.903Z,3.83
2019-03-06T22:34:17.465Z,4.00
2019-03-06T22:36:47.413Z,4.20
2019-03-06T22:39:18.590Z,3.30
2019-03-06T22:42:06.384Z,2.40
2019-03-06T22:44:38.706Z,5.10
2019-03-06T22:47:18.984Z,3.90
2019-03-06T22:49:54.504Z,3.70
2019-03-06T22:52:25.536Z,2.47
2019-03-06T22:54:59.494Z,2.70
2019-03-06T22:57:30.840Z,2.30
2019-03-06T23:00:04.634Z,5.13
2019-03-06T23:02:40.963Z,3.43
2019-03-06T23:05:15.179Z,2.63
2019-03-06T23:07:48.438Z,3.30
2019-03-06T23:10:19.964Z,3.57
2019-03-06T23:12:53.901Z,4.67
2019-03-06T23:15:31.240Z,4.00
2019-03-06T23:18:17.243Z,4.33
2019-03-06T23:20:48.558Z,3.27
2019-03-06T23:23:24.252Z,5.10
2019-03-06T23:25:55.876Z,6.00
2019-03-06T23:28:27.659Z,5.13
2019-03-06T23:30:59.060Z,5.13
2019-03-06T23:33:31.851Z,5.17
2019-03-06T23:36:03.592Z,5.70
2019-03-06T23:38:36.393Z,4.63
2019-03-06T23:41:08.441Z,5.73
2019-03-06T23:43:44.173Z,5.53
2019-03-06T23:46:15.505Z,4.77
2019-03-06T23:48:48.706Z,6.07
2019-03-06T23:51:25.677Z,9.30
2019-03-06T23:53:57.869Z,6.83
2019-03-06T23:56:31.515Z,8.53
2019-03-06T23:59:07.227Z,6.40
